createdAt,value
2019-05-28T00:02:07.026Z,76.12
2019-05-28T00:04:34.894Z,75.94
2019-05-28T00:07:02.967Z,76.40
2019-05-28T00:09:30.627Z,77.55
2019-05-28T00:11:58.264Z,77.73
2019-05-28T00:14:25.911Z,77.37
2019-05-28T00:16:53.758Z,77.32
2019-05-28T00:19:21.761Z,78.46
2019-05-28T00:21:49.401Z,79.46
2019-05-28T00:24:17.052Z,79.26
2019-05-28T00:26:44.767Z,79.56
2019-05-28T00:29:12.399Z,79.55
2019-05-28T00:31:40.048Z,79.39
2019-05-28T00:34:07.970Z,80.14
2019-05-28T00:36:35.686Z,79.72
2019-05-28T00:39:04.141Z,79.78
2019-05-28T00:41:31.852Z,80.39
2019-05-28T00:43:59.500Z,81.41
2019-05-28T00:46:27.167Z,81.31
2019-05-28T00:48:54.810Z,82.46
2019-05-28T00:51:22.501Z,82.19
2019-05-28T00:53:50.246Z,82.48
2019-05-28T00:56:18.127Z,81.54
2019-05-28T00:58:45.893Z,81.91
2019-05-28T01:01:13.545Z,81.88
2019-05-28T01:03:41.200Z,81.24
2019-05-28T01:06:08.856Z,81.11
2019-05-28T01:08:36.520Z,81.44
2019-05-28T01:11:04.361Z,81.26
2019-05-28T01:13:32.117Z,81.80
2019-05-28T01:15:59.896Z,82.42
2019-05-28T01:18:27.701Z,82.39
2019-05-28T01:20:55.345Z,83.17
2019-05-28T01:23:23.005Z,82.92
2019-05-28T01:25:50.692Z,82.45
2019-05-28T01:28:18.507Z,82.69
2019-05-28T01:30:56.231Z,82.86
2019-05-28T01:33:15.596Z,82.71
2019-05-28T01:35:43.237Z,82.99
2019-05-28T01:38:10.888Z,83.04
2019-05-28T01:40:38.564Z,82.27
2019-05-28T01:43:06.217Z,82.59
2019-05-28T01:45:33.863Z,82.37
2019-05-28T01:48:01.573Z,83.85
2019-05-28T01:50:29.622Z,83.29
2019-05-28T01:52:57.432Z,82.96
2019-05-28T01:55:25.357Z,83.65
2019-05-28T01:57:53.249Z,84.07
2019-05-28T02:00:20.906Z,84.09
2019-05-28T02:02:48.692Z,83.57
2019-05-28T02:05:16.508Z,84.07
2019-05-28T02:07:44.175Z,84.13
2019-05-28T02:10:12.008Z,83.89
2019-05-28T02:12:39.760Z,82.60
2019-05-28T02:15:07.420Z,82.60
2019-05-28T02:17:35.076Z,83.50
2019-05-28T02:22:35.485Z,83.21
2019-05-28T02:25:03.143Z,83.60
2019-05-28T02:27:30.809Z,83.76
2019-05-28T02:29:58.465Z,83.73
2019-05-28T02:32:26.127Z,83.89
2019-05-28T02:34:53.970Z,83.60
2019-05-28T02:37:21.894Z,84.25
2019-05-28T02:39:49.587Z,84.77
2019-05-28T02:42:17.241Z,86.54
2019-05-28T02:44:44.923Z,87.01
2019-05-28T02:47:12.576Z,87.32
2019-05-28T02:49:40.367Z,86.18
2019-05-28T02:52:08.277Z,84.23
2019-05-28T02:54:36.111Z,84.79
2019-05-28T02:57:03.827Z,84.09
2019-05-28T02:59:31.651Z,83.44
2019-05-28T03:01:59.346Z,83.27
2019-05-28T03:04:27.005Z,83.14
2019-05-28T03:06:54.978Z,83.47
2019-05-28T03:09:22.841Z,83.57
2019-05-28T03:11:50.607Z,81.97
2019-05-28T03:14:18.268Z,82.42
2019-05-28T03:16:45.932Z,81.94
2019-05-28T03:19:13.604Z,82.15
2019-05-28T03:21:41.290Z,82.87
2019-05-28T03:24:09.216Z,82.79
2019-05-28T03:26:36.987Z,82.88
2019-05-28T03:29:04.638Z,83.15
2019-05-28T03:31:32.299Z,83.94
2019-05-28T03:33:59.960Z,84.67
2019-05-28T03:36:27.620Z,83.69
2019-05-28T03:38:55.292Z,82.41
2019-05-28T03:41:22.952Z,81.97
2019-05-28T03:43:50.670Z,81.93
2019-05-28T03:46:18.391Z,81.19
2019-05-28T03:48:46.054Z,80.09
2019-05-28T03:51:13.901Z,81.92
2019-05-28T03:53:41.856Z,79.53
2019-05-28T03:56:09.686Z,78.92
2019-05-28T03:58:37.593Z,80.88
2019-05-28T04:01:05.362Z,79.99
2019-05-28T04:03:32.999Z,80.07
2019-05-28T04:06:00.828Z,81.49
2019-05-28T04:08:28.492Z,80.50
2019-05-28T04:10:56.138Z,82.02
2019-05-28T04:13:23.800Z,82.88
2019-05-28T04:15:51.629Z,82.84
2019-05-28T04:18:19.376Z,83.87
2019-05-28T04:20:47.033Z,84.33
2019-05-28T04:23:14.776Z,84.14
2019-05-28T04:25:42.507Z,84.82
2019-05-28T04:28:10.158Z,84.83
2019-05-28T04:30:37.811Z,86.37
2019-05-28T04:33:05.471Z,85.76
2019-05-28T04:35:33.119Z,86.05
2019-05-28T04:38:00.858Z,86.84
2019-05-28T04:40:29.148Z,87.66
2019-05-28T04:42:56.803Z,87.40
2019-05-28T04:45:24.464Z,87.65
2019-05-28T04:47:52.129Z,87.78
2019-05-28T04:50:19.792Z,88.41
2019-05-28T04:52:47.447Z,87.57
2019-05-28T04:55:15.109Z,86.74
2019-05-28T04:57:42.969Z,87.65
2019-05-28T05:00:10.675Z,86.45
2019-05-28T05:02:38.333Z,88.30
2019-05-28T05:05:06.006Z,88.35
2019-05-28T05:07:33.653Z,87.76
2019-05-28T05:10:01.644Z,88.39
2019-05-28T05:12:29.582Z,89.16
2019-05-28T05:14:57.359Z,87.12
2019-05-28T05:17:25.154Z,88.32
2019-05-28T05:19:52.924Z,87.48
2019-05-28T05:22:20.587Z,87.92
2019-05-28T05:24:48.405Z,87.89
2019-05-28T05:27:16.380Z,88.36
2019-05-28T05:29:44.060Z,88.40
2019-05-28T05:32:11.822Z,87.52
2019-05-28T05:34:39.646Z,88.46
2019-05-28T05:37:07.595Z,88.10
2019-05-28T05:39:35.254Z,89.05
2019-05-28T05:42:02.906Z,88.21
2019-05-28T05:44:30.568Z,87.60
2019-05-28T05:46:58.253Z,87.20
2019-05-28T05:49:25.912Z,87.11
2019-05-28T05:51:53.564Z,87.44
2019-05-28T05:54:21.215Z,87.35
2019-05-28T05:56:49.023Z,86.74
2019-05-28T05:59:16.989Z,87.91
2019-05-28T06:01:44.931Z,86.62
2019-05-28T06:04:12.641Z,86.12
2019-05-28T06:06:40.345Z,86.91
2019-05-28T06:09:08.033Z,87.97
2019-05-28T06:11:35.774Z,87.40
2019-05-28T06:14:03.641Z,87.40
2019-05-28T06:16:31.467Z,87.37
2019-05-28T06:18:59.154Z,86.98
2019-05-28T06:21:26.867Z,88.09
2019-05-28T06:23:54.532Z,87.75
2019-05-28T06:26:22.509Z,88.79
2019-05-28T06:28:50.481Z,89.30
2019-05-28T06:31:18.286Z,88.69
2019-05-28T06:33:56.282Z,88.80
2019-05-28T06:36:15.315Z,88.57
2019-05-28T06:38:43.084Z,87.68
2019-05-28T06:41:11.104Z,88.81
2019-05-28T06:43:38.815Z,86.85
2019-05-28T06:46:06.479Z,85.08
2019-05-28T06:48:34.144Z,85.09
2019-05-28T06:51:01.804Z,84.91
2019-05-28T06:53:29.465Z,84.19
2019-05-28T06:55:57.123Z,83.10
2019-05-28T06:58:38.815Z,82.90
2019-05-28T07:00:54.394Z,83.75
2019-05-28T07:03:22.388Z,84.26
2019-05-28T07:06:05.555Z,83.96
2019-05-28T07:08:19.420Z,83.29
2019-05-28T07:10:57.257Z,82.46
2019-05-28T07:13:16.736Z,82.91
2019-05-28T07:15:44.596Z,83.02
2019-05-28T07:18:12.264Z,82.64
2019-05-28T07:20:39.920Z,82.82
2019-05-28T07:23:07.571Z,83.27
2019-05-28T07:25:35.221Z,83.76
2019-05-28T07:28:11.070Z,82.60
2019-05-28T07:30:32.526Z,83.91
2019-05-28T07:33:00.242Z,82.86
2019-05-28T07:35:42.648Z,81.83
2019-05-28T07:37:57.409Z,82.73
2019-05-28T07:40:31.519Z,81.90
2019-05-28T07:42:54.799Z,81.25
2019-05-28T07:45:22.473Z,83.66
2019-05-28T07:47:50.132Z,82.07
2019-05-28T07:50:17.787Z,81.93
2019-05-28T07:52:45.437Z,80.88
2019-05-28T07:55:13.107Z,82.23
2019-05-28T07:57:40.832Z,83.19
2019-05-28T08:00:08.828Z,82.75
2019-05-28T08:02:36.642Z,80.60
2019-05-28T08:05:04.302Z,81.35
2019-05-28T08:07:32.143Z,82.31
2019-05-28T08:09:59.996Z,78.33
2019-05-28T08:12:27.863Z,79.16
2019-05-28T08:14:55.632Z,76.83
2019-05-28T08:17:23.293Z,78.42
2019-05-28T08:19:50.939Z,76.05
2019-05-28T08:22:18.596Z,76.39
2019-05-28T08:24:46.378Z,78.20
2019-05-28T08:27:14.320Z,80.50
2019-05-28T08:29:45.504Z,77.86
2019-05-28T08:32:11.385Z,76.32
2019-05-28T08:34:39.035Z,76.87
2019-05-28T08:37:06.877Z,77.86
2019-05-28T08:39:34.720Z,74.05
2019-05-28T08:42:02.367Z,74.50
2019-05-28T08:44:30.089Z,78.01
2019-05-28T08:46:58.021Z,78.56
2019-05-28T08:49:25.834Z,78.82
2019-05-28T08:51:53.603Z,77.58
2019-05-28T08:54:21.279Z,76.40
2019-05-28T08:56:48.918Z,76.95
2019-05-28T08:59:16.575Z,75.91
2019-05-28T09:01:44.240Z,76.41
2019-05-28T09:04:12.150Z,76.46
2019-05-28T09:06:39.798Z,74.95
2019-05-28T09:09:07.616Z,75.46
2019-05-28T09:11:35.291Z,74.61
2019-05-28T09:14:03.027Z,75.54
2019-05-28T09:16:30.684Z,74.10
2019-05-28T09:18:58.548Z,77.70
2019-05-28T09:21:26.324Z,75.05
2019-05-28T09:23:54.123Z,76.36
2019-05-28T09:26:21.885Z,76.05
2019-05-28T09:28:49.580Z,75.00
2019-05-28T09:31:17.313Z,72.50
2019-05-28T09:33:45.043Z,72.62
2019-05-28T09:36:12.698Z,72.55
2019-05-28T09:38:40.344Z,74.71
2019-05-28T09:41:08.006Z,77.28
2019-05-28T09:43:35.669Z,78.42
2019-05-28T09:46:03.328Z,77.97
2019-05-28T09:48:31.028Z,75.03
2019-05-28T09:50:58.707Z,78.57
2019-05-28T09:53:26.448Z,79.06
2019-05-28T09:55:54.619Z,78.49
2019-05-28T09:58:22.343Z,80.73
2019-05-28T10:00:58.442Z,76.87
2019-05-28T10:03:20.329Z,73.83
2019-05-28T10:05:58.639Z,75.93
2019-05-28T10:08:17.460Z,72.23
2019-05-28T10:10:45.153Z,73.74
2019-05-28T10:13:12.926Z,71.48
2019-05-28T10:15:40.646Z,72.74
2019-05-28T10:18:08.287Z,73.23
2019-05-28T10:20:38.092Z,73.92
2019-05-28T10:23:05.513Z,73.75
2019-05-28T10:25:33.159Z,71.80
2019-05-28T10:28:01.931Z,74.62
2019-05-28T10:30:29.831Z,69.42
2019-05-28T10:32:57.492Z,67.36
2019-05-28T10:35:25.332Z,70.64
2019-05-28T10:37:53.029Z,70.74
2019-05-28T10:40:20.682Z,67.52
2019-05-28T10:42:48.363Z,67.05
2019-05-28T10:45:16.077Z,70.95
2019-05-28T10:47:43.730Z,70.12
2019-05-28T10:50:11.380Z,73.26
2019-05-28T10:52:39.025Z,73.05
2019-05-28T10:55:06.686Z,70.98
2019-05-28T10:57:34.628Z,66.74
2019-05-28T11:00:02.825Z,66.33
2019-05-28T11:02:30.953Z,66.17
2019-05-28T11:04:58.608Z,65.50
2019-05-28T11:07:26.267Z,62.72
2019-05-28T11:09:53.971Z,62.01
2019-05-28T11:12:21.744Z,65.68
2019-05-28T11:14:49.719Z,61.04
2019-05-28T11:17:17.363Z,65.28
2019-05-28T11:19:45.008Z,64.96
2019-05-28T11:22:12.690Z,66.45
2019-05-28T11:24:40.362Z,66.79
2019-05-28T11:27:08.008Z,63.50
2019-05-28T11:29:35.679Z,68.84
2019-05-28T11:32:03.324Z,65.28
2019-05-28T11:34:31.152Z,57.13
2019-05-28T11:37:08.729Z,62.36
2019-05-28T11:39:28.237Z,64.92
2019-05-28T11:41:55.891Z,61.52
2019-05-28T11:44:23.548Z,57.89
2019-05-28T11:46:51.299Z,58.10
2019-05-28T11:49:19.022Z,57.26
2019-05-28T11:51:46.745Z,58.74
2019-05-28T11:54:14.505Z,56.40
2019-05-28T11:56:42.248Z,58.70
2019-05-28T11:59:10.078Z,60.74
2019-05-28T12:01:37.759Z,60.73
2019-05-28T12:04:05.478Z,60.95
2019-05-28T12:06:38.083Z,61.59
2019-05-28T12:09:02.551Z,58.92
2019-05-28T12:11:30.332Z,59.32
2019-05-28T12:13:58.062Z,60.36
2019-05-28T12:16:25.802Z,56.71
2019-05-28T12:18:53.483Z,58.10
2019-05-28T12:21:21.137Z,58.21
2019-05-28T12:23:48.780Z,55.49
2019-05-28T12:26:16.443Z,60.25
2019-05-28T12:28:44.085Z,59.48
2019-05-28T12:31:11.771Z,59.53
2019-05-28T12:33:39.514Z,58.72
2019-05-28T12:36:07.177Z,57.67
2019-05-28T12:38:34.915Z,60.02
2019-05-28T12:41:02.808Z,61.83
2019-05-28T12:43:30.449Z,60.31
2019-05-28T12:45:58.218Z,60.43
2019-05-28T12:48:26.110Z,56.92
2019-05-28T12:50:53.909Z,61.56
2019-05-28T12:53:21.552Z,58.34
2019-05-28T12:55:49.203Z,55.87
2019-05-28T12:58:18.223Z,57.42
2019-05-28T13:00:46.220Z,61.15
2019-05-28T13:03:13.910Z,59.43
2019-05-28T13:05:41.834Z,61.18
2019-05-28T13:08:10.772Z,61.03
2019-05-28T13:10:38.667Z,60.81
2019-05-28T13:13:06.320Z,62.50
2019-05-28T13:15:34.245Z,62.99
2019-05-28T13:18:02.238Z,59.49
2019-05-28T13:20:29.916Z,63.89
2019-05-28T13:22:57.568Z,62.65
2019-05-28T13:25:25.231Z,61.79
2019-05-28T13:27:52.888Z,60.26
2019-05-28T13:30:20.551Z,60.31
2019-05-28T13:32:48.233Z,60.89
2019-05-28T13:35:16.021Z,61.06
2019-05-28T13:37:43.734Z,60.02
2019-05-28T13:40:11.581Z,61.09
2019-05-28T13:42:39.268Z,61.91
2019-05-28T13:45:06.920Z,60.61
2019-05-28T13:47:34.636Z,60.54
2019-05-28T13:50:02.579Z,57.88
2019-05-28T13:52:30.512Z,59.14
2019-05-28T13:54:58.172Z,61.42
2019-05-28T13:57:25.959Z,61.40
2019-05-28T13:59:58.370Z,62.66
2019-05-28T14:02:22.975Z,64.50
2019-05-28T14:04:50.637Z,61.90
2019-05-28T14:07:18.295Z,64.72
2019-05-28T14:09:45.927Z,61.47
2019-05-28T14:12:13.613Z,60.24
2019-05-28T14:14:41.447Z,61.52
2019-05-28T14:17:09.150Z,62.49
2019-05-28T14:19:36.783Z,63.66
2019-05-28T14:22:04.798Z,62.33
2019-05-28T14:24:33.072Z,60.94
2019-05-28T14:27:00.873Z,60.64
2019-05-28T14:29:28.524Z,61.05
2019-05-28T14:31:56.167Z,61.54
2019-05-28T14:34:23.851Z,61.57
2019-05-28T14:36:51.503Z,61.01
2019-05-28T14:39:19.182Z,59.87
2019-05-28T14:41:46.832Z,64.92
2019-05-28T14:44:14.582Z,64.70
2019-05-28T14:46:42.229Z,63.08
2019-05-28T14:49:09.891Z,60.57
2019-05-28T14:51:37.600Z,60.73
2019-05-28T14:54:05.251Z,60.51
2019-05-28T14:56:33.043Z,60.90
2019-05-28T14:59:00.774Z,60.84
2019-05-28T15:01:28.464Z,60.38
2019-05-28T15:03:56.120Z,61.42
2019-05-28T15:06:23.782Z,62.18
2019-05-28T15:08:51.423Z,62.94
2019-05-28T15:11:19.101Z,61.35
2019-05-28T15:13:46.773Z,62.28
2019-05-28T15:16:14.653Z,63.38
2019-05-28T15:18:42.380Z,63.38
2019-05-28T15:21:10.015Z,63.34
2019-05-28T15:23:37.675Z,61.65
2019-05-28T15:26:05.314Z,61.06
2019-05-28T15:28:32.993Z,58.85
2019-05-28T15:31:00.653Z,59.80
2019-05-28T15:33:28.308Z,60.62
2019-05-28T15:35:56.404Z,62.39
2019-05-28T15:38:24.203Z,61.99
2019-05-28T15:40:51.861Z,62.08
2019-05-28T15:43:19.513Z,63.21
2019-05-28T15:45:47.240Z,62.39
2019-05-28T15:48:14.969Z,63.34
2019-05-28T15:50:42.872Z,64.03
2019-05-28T15:53:10.602Z,61.86
2019-05-28T15:55:38.352Z,62.84
2019-05-28T15:58:06.318Z,63.17
2019-05-28T16:00:34.024Z,64.93
2019-05-28T16:03:01.671Z,65.66
2019-05-28T16:05:29.332Z,65.89
2019-05-28T16:07:56.989Z,66.04
2019-05-28T16:10:24.652Z,67.70
2019-05-28T16:12:52.317Z,68.66
2019-05-28T16:15:20.004Z,70.66
2019-05-28T16:17:47.788Z,70.41
2019-05-28T16:20:15.443Z,69.69
2019-05-28T16:22:43.127Z,69.77
2019-05-28T16:25:10.844Z,71.91
2019-05-28T16:27:38.524Z,72.20
2019-05-28T16:30:06.240Z,73.82
2019-05-28T16:32:34.263Z,72.70
2019-05-28T16:35:02.132Z,74.49
2019-05-28T16:37:30.030Z,75.18
2019-05-28T16:40:13.579Z,76.28
2019-05-28T16:42:27.163Z,75.60
2019-05-28T16:44:56.381Z,76.32
2019-05-28T16:47:24.330Z,74.84
2019-05-28T16:49:53.002Z,74.96
2019-05-28T16:52:20.661Z,70.49
2019-05-28T16:54:48.318Z,69.72
2019-05-28T16:57:15.972Z,71.71
2019-05-28T16:59:43.643Z,73.00
2019-05-28T17:02:11.467Z,72.92
2019-05-28T17:04:39.118Z,73.50
2019-05-28T17:07:06.769Z,70.95
2019-05-28T17:09:34.437Z,71.65
2019-05-28T17:12:02.089Z,67.77
2019-05-28T17:14:29.818Z,66.86
2019-05-28T17:16:57.730Z,68.67
2019-05-28T17:19:25.380Z,66.83
2019-05-28T17:21:53.034Z,65.55
2019-05-28T17:24:21.006Z,65.92
2019-05-28T17:26:48.736Z,65.84
2019-05-28T17:29:16.379Z,65.76
2019-05-28T17:31:44.061Z,63.38
2019-05-28T17:34:11.721Z,65.63
2019-05-28T17:36:39.406Z,63.68
2019-05-28T17:39:07.051Z,63.79
2019-05-28T17:41:34.708Z,64.88
2019-05-28T17:44:02.374Z,65.08
2019-05-28T17:46:30.037Z,66.16
2019-05-28T17:48:57.676Z,66.38
2019-05-28T17:51:25.349Z,66.57
2019-05-28T17:53:53.009Z,65.38
2019-05-28T17:56:20.669Z,65.92
2019-05-28T17:58:48.566Z,68.48
2019-05-28T18:01:16.380Z,68.13
2019-05-28T18:03:44.029Z,69.04
2019-05-28T18:06:11.697Z,68.50
2019-05-28T18:08:39.361Z,67.23
2019-05-28T18:11:07.179Z,67.70
2019-05-28T18:13:34.923Z,68.47
2019-05-28T18:16:02.576Z,68.70
2019-05-28T18:18:30.281Z,70.21
2019-05-28T18:20:58.134Z,68.96
2019-05-28T18:23:25.845Z,69.36
2019-05-28T18:25:53.594Z,68.74
2019-05-28T18:28:21.250Z,68.72
2019-05-28T18:30:48.956Z,68.30
2019-05-28T18:33:16.641Z,69.02
2019-05-28T18:35:44.307Z,69.52
2019-05-28T18:38:11.998Z,69.48
2019-05-28T18:40:39.665Z,69.95
2019-05-28T18:43:07.478Z,70.37
2019-05-28T18:45:36.285Z,69.28
2019-05-28T18:48:03.944Z,69.17
2019-05-28T18:50:31.603Z,69.96
2019-05-28T18:52:59.262Z,70.81
2019-05-28T18:55:26.968Z,71.30
2019-05-28T18:57:54.756Z,70.74
2019-05-28T19:00:22.531Z,69.78
2019-05-28T19:02:50.283Z,71.63
2019-05-28T19:05:18.112Z,71.54
2019-05-28T19:07:45.772Z,70.11
2019-05-28T19:10:13.424Z,70.47
2019-05-28T19:12:41.090Z,70.41
2019-05-28T19:15:08.856Z,68.03
2019-05-28T19:17:36.526Z,69.98
2019-05-28T19:20:04.173Z,70.45
2019-05-28T19:22:31.915Z,70.87
2019-05-28T19:24:59.562Z,69.51
2019-05-28T19:27:27.212Z,69.26
2019-05-28T19:29:54.863Z,70.00
2019-05-28T19:32:22.666Z,69.39
2019-05-28T19:34:50.333Z,69.47
2019-05-28T19:37:17.997Z,70.55
2019-05-28T19:39:45.665Z,68.50
2019-05-28T19:42:13.330Z,70.11
2019-05-28T19:44:41.018Z,69.82
2019-05-28T19:47:08.717Z,70.38
2019-05-28T19:49:36.380Z,70.85
2019-05-28T19:52:04.042Z,69.84
2019-05-28T19:54:31.681Z,69.94
2019-05-28T19:56:59.344Z,70.69
2019-05-28T19:59:27.020Z,70.79
2019-05-28T20:01:54.660Z,70.56
2019-05-28T20:04:22.482Z,69.54
2019-05-28T20:06:50.203Z,70.43
2019-05-28T20:09:17.876Z,69.89
2019-05-28T20:11:45.515Z,70.26
2019-05-28T20:14:13.170Z,70.80
2019-05-28T20:16:40.843Z,70.68
2019-05-28T20:19:08.500Z,69.69
2019-05-28T20:21:36.144Z,69.67
2019-05-28T20:24:03.831Z,70.85
2019-05-28T20:26:31.481Z,70.72
2019-05-28T20:29:08.400Z,70.55
2019-05-28T20:31:28.483Z,71.11
2019-05-28T20:33:56.152Z,71.32
2019-05-28T20:36:23.809Z,71.81
2019-05-28T20:38:51.584Z,71.65
2019-05-28T20:41:19.238Z,71.16
2019-05-28T20:43:46.876Z,71.05
2019-05-28T20:46:14.684Z,69.20
2019-05-28T20:48:42.415Z,70.20
2019-05-28T20:51:20.204Z,70.30
2019-05-28T20:53:39.487Z,70.00
2019-05-28T20:56:07.136Z,70.39
2019-05-28T20:58:40.298Z,69.90
2019-05-28T21:01:04.154Z,70.27
2019-05-28T21:03:31.799Z,71.19
2019-05-28T21:05:59.706Z,71.72
2019-05-28T21:08:27.369Z,71.64
2019-05-28T21:10:55.170Z,71.99
2019-05-28T21:13:22.808Z,69.90
2019-05-28T21:15:50.702Z,68.65
2019-05-28T21:18:18.394Z,70.63
2019-05-28T21:20:46.058Z,69.62
2019-05-28T21:23:13.697Z,69.77
2019-05-28T21:25:41.342Z,69.74
2019-05-28T21:28:08.987Z,70.36
2019-05-28T21:30:36.904Z,70.96
2019-05-28T21:33:04.594Z,70.37
2019-05-28T21:35:32.240Z,70.51
2019-05-28T21:37:59.898Z,71.30
2019-05-28T21:40:27.589Z,70.81
2019-05-28T21:43:01.299Z,71.83
2019-05-28T21:45:24.598Z,71.48
2019-05-28T21:47:52.458Z,72.35
2019-05-28T21:50:20.815Z,72.56
2019-05-28T21:52:48.723Z,73.00
2019-05-28T21:57:43.149Z,73.16
2019-05-28T22:00:12.573Z,73.83
2019-05-28T22:02:40.231Z,73.58
2019-05-28T22:05:09.591Z,73.64
2019-05-28T22:07:37.402Z,74.10
2019-05-28T22:10:05.062Z,74.11
2019-05-28T22:12:32.717Z,75.25
2019-05-28T22:15:00.348Z,75.11
2019-05-28T22:17:28.015Z,74.70
2019-05-28T22:19:56.277Z,74.35
2019-05-28T22:22:24.200Z,75.32
2019-05-28T22:24:51.844Z,75.83
2019-05-28T22:27:19.496Z,75.56
2019-05-28T22:29:47.147Z,74.64
2019-05-28T22:32:14.805Z,74.61
2019-05-28T22:34:42.707Z,75.19
2019-05-28T22:37:10.679Z,75.45
2019-05-28T22:39:38.396Z,75.45
2019-05-28T22:42:06.070Z,75.80
2019-05-28T22:44:33.755Z,76.33
2019-05-28T22:47:01.425Z,75.99
2019-05-28T22:49:29.086Z,76.42
2019-05-28T22:51:57.725Z,75.44
2019-05-28T22:54:25.508Z,75.55
2019-05-28T22:56:53.235Z,75.46
2019-05-28T22:59:20.950Z,77.23
2019-05-28T23:01:48.652Z,76.22
2019-05-28T23:04:16.437Z,76.16
2019-05-28T23:06:44.177Z,75.77
2019-05-28T23:09:12.102Z,75.71
2019-05-28T23:11:39.830Z,76.93
2019-05-28T23:14:08.220Z,77.24
2019-05-28T23:16:35.916Z,76.48
2019-05-28T23:19:04.445Z,75.30
2019-05-28T23:21:32.215Z,75.69
2019-05-28T23:24:00.935Z,76.01
2019-05-28T23:26:28.704Z,75.82
2019-05-28T23:28:56.480Z,75.95
2019-05-28T23:31:24.119Z,75.89
2019-05-28T23:33:51.770Z,75.44
2019-05-28T23:36:19.576Z,75.62
2019-05-28T23:38:47.232Z,75.90
2019-05-28T23:41:15.023Z,75.56
2019-05-28T23:43:42.718Z,75.54
2019-05-28T23:46:10.592Z,75.08
2019-05-28T23:48:38.350Z,75.86
2019-05-28T23:51:06.353Z,75.45
2019-05-28T23:53:34.067Z,76.08
2019-05-28T23:56:01.715Z,76.59
2019-05-28T23:58:29.418Z,77.24
